createdAt,value
2022-11-30T00:00:34.444Z,23.10
2022-11-30T00:05:38.902Z,23.88
2022-11-30T00:10:41.549Z,20.40
2022-11-30T00:15:43.301Z,22.50
2022-11-30T00:20:45.403Z,21.25
2022-11-30T00:25:47.143Z,23.88
2022-11-30T00:30:59.072Z,23.42
2022-11-30T00:36:10.627Z,22.08
2022-11-30T00:41:12.872Z,23.83
2022-11-30T00:46:14.926Z,22.33
2022-11-30T00:51:16.833Z,22.95
2022-11-30T00:56:18.590Z,23.42
2022-11-30T01:01:20.450Z,21.20
2022-11-30T01:06:22.218Z,20.02
2022-11-30T01:11:26.204Z,18.55
2022-11-30T01:16:31.275Z,20.05
2022-11-30T01:21:33.132Z,18.95
2022-11-30T01:26:34.990Z,20.08
2022-11-30T01:31:36.982Z,18.80
2022-11-30T01:36:39.027Z,20.60
2022-11-30T01:41:40.977Z,19.48
2022-11-30T01:47:01.806Z,19.10
2022-11-30T01:57:34.465Z,20.40
2022-11-30T02:03:04.807Z,20.63
2022-11-30T02:08:10.733Z,19.35
2022-11-30T02:13:34.195Z,19.40
2022-11-30T02:18:40.945Z,21.48
2022-11-30T02:24:03.598Z,20.15
2022-11-30T02:29:19.921Z,19.33
2022-11-30T02:34:23.719Z,19.77
2022-11-30T02:39:25.547Z,20.00
2022-11-30T02:44:28.321Z,18.70
2022-11-30T02:50:09.146Z,19.33
2022-11-30T02:55:14.762Z,20.63
2022-11-30T03:00:17.343Z,20.83
2022-11-30T03:05:19.359Z,21.17
2022-11-30T03:10:21.131Z,20.75
2022-11-30T03:15:23.498Z,18.25
2022-11-30T03:20:25.641Z,18.90
2022-11-30T03:25:27.985Z,18.17
2022-11-30T03:30:29.818Z,18.35
2022-11-30T03:35:31.550Z,18.65
2022-11-30T03:40:33.313Z,19.77
2022-11-30T03:45:35.141Z,19.95
2022-11-30T03:50:36.892Z,20.17
2022-11-30T03:55:38.600Z,20.13
2022-11-30T04:00:40.413Z,21.77
2022-11-30T04:05:43.043Z,22.55
2022-11-30T04:10:47.964Z,23.92
2022-11-30T04:15:51.682Z,22.27
2022-11-30T04:20:55.227Z,22.17
2022-11-30T04:25:58.012Z,18.15
2022-11-30T04:31:01.019Z,20.65
2022-11-30T04:36:05.576Z,20.45
2022-11-30T04:41:08.882Z,19.48
2022-11-30T04:46:11.144Z,17.92
2022-11-30T04:51:13.012Z,18.88
2022-11-30T04:56:14.874Z,18.80
2022-11-30T05:01:16.778Z,20.50
2022-11-30T05:06:18.633Z,20.52
2022-11-30T05:11:20.418Z,18.27
2022-11-30T05:16:22.494Z,20.75
2022-11-30T05:21:24.478Z,17.75
2022-11-30T05:26:26.263Z,19.77
2022-11-30T05:31:28.020Z,20.08
2022-11-30T05:36:29.778Z,19.58
2022-11-30T05:41:31.861Z,20.15
2022-11-30T05:46:38.264Z,19.52
2022-11-30T05:51:42.567Z,19.27
2022-11-30T05:56:44.458Z,17.40
2022-11-30T06:01:46.250Z,20.55
2022-11-30T06:06:49.630Z,19.08
2022-11-30T06:11:51.727Z,18.50
2022-11-30T06:16:53.459Z,18.45
2022-11-30T06:21:55.200Z,18.13
2022-11-30T06:26:56.998Z,19.10
2022-11-30T06:31:58.778Z,18.30
2022-11-30T06:37:00.538Z,20.17
2022-11-30T06:42:02.317Z,20.25
2022-11-30T06:47:04.084Z,20.27
2022-11-30T06:52:06.087Z,21.70
2022-11-30T06:57:07.789Z,19.98
2022-11-30T07:02:18.983Z,22.08
2022-11-30T07:07:21.455Z,22.23
2022-11-30T07:12:24.047Z,22.55
2022-11-30T07:17:25.843Z,23.65
2022-11-30T07:22:27.623Z,20.95
2022-11-30T07:27:29.464Z,19.33
2022-11-30T07:32:31.268Z,20.55
2022-11-30T07:37:33.012Z,21.75
2022-11-30T07:42:34.784Z,22.88
2022-11-30T07:47:36.692Z,21.73
2022-11-30T07:52:38.575Z,21.98
2022-11-30T07:57:40.352Z,20.30
2022-11-30T08:02:42.076Z,19.50
2022-11-30T08:07:46.015Z,19.52
2022-11-30T08:12:48.771Z,19.40
2022-11-30T08:17:54.343Z,19.83
2022-11-30T08:22:56.088Z,19.80
2022-11-30T08:27:57.841Z,21.27
2022-11-30T08:32:59.658Z,22.10
2022-11-30T08:38:01.403Z,21.88
2022-11-30T08:43:03.220Z,21.23
2022-11-30T08:48:05.322Z,21.17
2022-11-30T08:53:07.098Z,21.85
2022-11-30T08:58:09.014Z,21.80
2022-11-30T09:03:10.800Z,19.30
2022-11-30T09:08:12.750Z,21.02
2022-11-30T09:13:14.618Z,22.67
2022-11-30T09:18:16.413Z,20.70
2022-11-30T09:23:18.281Z,23.42
2022-11-30T09:28:19.998Z,21.65
2022-11-30T09:33:23.114Z,22.00
2022-11-30T09:38:31.224Z,22.83
2022-11-30T09:43:44.020Z,21.95
2022-11-30T09:49:11.285Z,20.83
2022-11-30T09:54:44.411Z,21.88
2022-11-30T09:59:56.836Z,22.60
2022-11-30T10:04:59.662Z,23.25
2022-11-30T10:10:32.946Z,22.02
2022-11-30T10:15:57.876Z,22.05
2022-11-30T10:21:32.898Z,22.60
2022-11-30T10:26:38.214Z,24.10
2022-11-30T10:31:41.765Z,23.48
2022-11-30T10:36:46.315Z,21.42
2022-11-30T10:41:56.919Z,23.13
2022-11-30T10:47:03.692Z,16.17
2022-11-30T10:52:09.547Z,24.38
2022-11-30T10:57:14.465Z,24.45
2022-11-30T11:02:35.223Z,24.15
2022-11-30T11:12:50.143Z,21.25
2022-11-30T11:17:53.801Z,22.05
2022-11-30T11:22:55.623Z,21.85
2022-11-30T11:28:04.557Z,22.35
2022-11-30T11:33:21.523Z,23.88
2022-11-30T11:38:29.611Z,24.23
2022-11-30T11:43:33.911Z,23.15
2022-11-30T11:48:40.426Z,23.30
2022-11-30T11:53:54.044Z,23.17
2022-11-30T11:59:05.025Z,21.77
2022-11-30T12:09:25.257Z,19.37
2022-11-30T12:14:27.822Z,22.60
2022-11-30T12:19:55.421Z,23.13
2022-11-30T12:25:18.257Z,20.58
2022-11-30T12:30:57.869Z,21.67
2022-11-30T12:36:18.830Z,21.58
2022-11-30T12:41:39.338Z,20.70
2022-11-30T12:46:47.024Z,20.63
2022-11-30T12:52:28.630Z,22.42
2022-11-30T12:57:38.168Z,21.27
2022-11-30T13:03:04.909Z,21.95
2022-11-30T13:08:26.078Z,20.30
2022-11-30T13:13:32.143Z,18.52
2022-11-30T13:18:34.826Z,20.00
2022-11-30T13:23:54.990Z,19.17
2022-11-30T13:29:22.846Z,20.10
2022-11-30T13:34:25.881Z,19.40
2022-11-30T13:39:29.422Z,21.67
2022-11-30T13:44:40.028Z,19.92
2022-11-30T13:49:42.329Z,16.88
2022-11-30T13:54:54.583Z,18.73
2022-11-30T13:59:58.084Z,18.65
2022-11-30T14:05:18.130Z,19.13
2022-11-30T14:10:39.398Z,18.87
2022-11-30T14:15:42.172Z,21.67
2022-11-30T14:21:13.076Z,19.85
2022-11-30T14:31:23.135Z,18.63
2022-11-30T14:36:32.655Z,20.75
2022-11-30T14:41:34.386Z,19.85
2022-11-30T14:46:36.417Z,20.27
2022-11-30T14:51:38.812Z,22.63
2022-11-30T14:56:49.688Z,21.98
2022-11-30T15:07:00.980Z,21.52
2022-11-30T15:12:02.777Z,20.58
2022-11-30T15:17:14.586Z,21.23
2022-11-30T15:22:22.997Z,20.77
2022-11-30T15:27:26.215Z,20.85
2022-11-30T15:32:29.159Z,20.73
2022-11-30T15:37:34.183Z,19.48
2022-11-30T15:42:41.557Z,20.30
2022-11-30T15:47:43.585Z,17.85
2022-11-30T15:52:49.865Z,20.95
2022-11-30T15:58:02.786Z,18.77
2022-11-30T16:03:12.989Z,19.52
2022-11-30T16:08:17.880Z,20.27
2022-11-30T16:13:22.416Z,19.92
2022-11-30T16:18:26.314Z,20.50
2022-11-30T16:23:28.839Z,21.15
2022-11-30T16:28:30.902Z,20.58
2022-11-30T16:33:32.861Z,20.42
2022-11-30T16:38:34.698Z,21.25
2022-11-30T16:43:40.065Z,21.50
2022-11-30T16:48:42.587Z,21.10
2022-11-30T16:53:45.303Z,23.00
2022-11-30T16:58:47.658Z,22.80
2022-11-30T17:03:51.568Z,20.92
2022-11-30T17:08:53.698Z,20.42
2022-11-30T17:13:55.937Z,22.35
2022-11-30T17:18:57.907Z,24.33
2022-11-30T17:23:59.702Z,22.48
2022-11-30T17:29:01.669Z,24.48
2022-11-30T17:34:04.167Z,24.17
2022-11-30T17:39:07.899Z,25.63
2022-11-30T17:44:10.578Z,27.83
2022-11-30T17:49:12.475Z,26.83
2022-11-30T17:54:14.555Z,27.33
2022-11-30T17:59:16.430Z,27.73
2022-11-30T18:04:19.027Z,29.02
2022-11-30T18:09:21.110Z,34.83
2022-11-30T18:14:23.083Z,37.63
2022-11-30T18:19:25.157Z,31.05
2022-11-30T18:24:27.156Z,29.50
2022-11-30T18:29:29.354Z,29.83
2022-11-30T18:34:31.649Z,30.33
2022-11-30T18:39:33.386Z,30.50
2022-11-30T18:44:35.212Z,31.00
2022-11-30T18:49:36.980Z,33.78
2022-11-30T18:54:39.111Z,32.17
2022-11-30T18:59:41.357Z,36.13
2022-11-30T19:04:44.289Z,31.48
2022-11-30T19:09:46.484Z,35.42
2022-11-30T19:14:49.307Z,33.47
2022-11-30T19:19:53.650Z,29.58
2022-11-30T19:24:55.482Z,28.20
2022-11-30T19:29:57.317Z,32.22
2022-11-30T19:34:59.125Z,39.92
2022-11-30T19:40:02.674Z,27.15
2022-11-30T19:45:06.346Z,25.27
2022-11-30T19:50:08.367Z,25.27
2022-11-30T19:55:10.592Z,23.23
2022-11-30T20:00:14.108Z,22.08
2022-11-30T20:05:18.383Z,22.23
2022-11-30T20:10:20.200Z,21.90
2022-11-30T20:15:22.052Z,21.40
2022-11-30T20:20:24.251Z,22.00
2022-11-30T20:25:27.375Z,23.27
2022-11-30T20:30:29.218Z,22.45
2022-11-30T20:35:31.093Z,22.67
2022-11-30T20:40:33.120Z,21.48
2022-11-30T20:45:36.129Z,22.85
2022-11-30T20:50:38.334Z,23.65
2022-11-30T20:55:40.100Z,23.38
2022-11-30T21:00:42.142Z,21.65
2022-11-30T21:05:43.910Z,23.05
2022-11-30T21:10:46.206Z,24.90
2022-11-30T21:15:48.074Z,23.08
2022-11-30T21:20:50.194Z,22.60
2022-11-30T21:25:51.938Z,22.05
2022-11-30T21:30:56.080Z,23.40
2022-11-30T21:35:59.147Z,22.70
2022-11-30T21:41:01.900Z,22.58
2022-11-30T21:46:16.267Z,23.67
2022-11-30T21:51:21.302Z,22.08
2022-11-30T21:56:28.603Z,22.95
2022-11-30T22:01:35.690Z,23.00
2022-11-30T22:06:38.876Z,23.20
2022-11-30T22:11:42.638Z,23.45
2022-11-30T22:16:44.929Z,22.95
2022-11-30T22:21:50.315Z,22.95
2022-11-30T22:26:52.327Z,21.17
2022-11-30T22:31:54.771Z,23.08
2022-11-30T22:36:57.183Z,21.30
2022-11-30T22:41:59.023Z,23.92
2022-11-30T22:47:00.887Z,24.45
2022-11-30T22:52:02.757Z,23.75
2022-11-30T22:57:04.651Z,24.42
2022-11-30T23:02:09.848Z,24.00
2022-11-30T23:07:11.598Z,23.27
2022-11-30T23:12:35.820Z,22.55
2022-11-30T23:17:37.609Z,23.88
2022-11-30T23:22:39.373Z,23.50
2022-11-30T23:27:41.220Z,23.30
2022-11-30T23:32:43.121Z,23.70
2022-11-30T23:37:45.045Z,22.00
2022-11-30T23:42:46.802Z,24.52
2022-11-30T23:47:48.567Z,23.73
2022-11-30T23:52:53.497Z,23.25
2022-11-30T23:57:55.237Z,23.15
